createdAt,value
2022-10-10T00:00:58.919Z,100.00
2022-10-10T00:04:00.337Z,100.00
2022-10-10T00:07:01.653Z,100.00
2022-10-10T00:10:03.034Z,100.00
2022-10-10T00:13:04.752Z,100.00
2022-10-10T00:16:06.348Z,100.00
2022-10-10T00:19:07.765Z,100.00
2022-10-10T00:22:09.091Z,100.00
2022-10-10T00:25:10.645Z,100.00
2022-10-10T00:28:12.678Z,100.00
2022-10-10T00:31:14.083Z,100.00
2022-10-10T00:34:15.476Z,100.00
2022-10-10T00:37:16.832Z,100.00
2022-10-10T00:40:18.214Z,100.00
2022-10-10T00:43:19.751Z,100.00
2022-10-10T00:46:21.108Z,100.00
2022-10-10T00:49:23.256Z,100.00
2022-10-10T00:52:24.615Z,100.00
2022-10-10T00:55:26.028Z,100.00
2022-10-10T00:58:27.440Z,100.00
2022-10-10T01:01:28.810Z,100.00
2022-10-10T01:04:35.065Z,100.00
2022-10-10T01:07:36.518Z,100.00
2022-10-10T01:10:50.535Z,100.00
2022-10-10T01:13:54.910Z,100.00
2022-10-10T01:17:04.324Z,100.00
2022-10-10T01:20:24.397Z,100.00
2022-10-10T01:23:28.767Z,100.00
2022-10-10T01:26:48.433Z,100.00
2022-10-10T01:29:53.854Z,100.00
2022-10-10T01:33:01.573Z,100.00
2022-10-10T01:36:15.220Z,100.00
2022-10-10T01:39:22.500Z,100.00
2022-10-10T01:42:43.793Z,100.00
2022-10-10T01:45:46.006Z,100.00
2022-10-10T01:48:48.211Z,100.00
2022-10-10T01:52:01.916Z,100.00
2022-10-10T01:55:06.337Z,100.00
2022-10-10T01:58:26.479Z,100.00
2022-10-10T02:01:36.102Z,100.00
2022-10-10T02:04:41.793Z,100.00
2022-10-10T02:07:48.920Z,100.00
2022-10-10T02:10:52.339Z,100.00
2022-10-10T02:14:01.484Z,100.00
2022-10-10T02:17:02.863Z,100.00
2022-10-10T02:20:04.376Z,100.00
2022-10-10T02:23:06.256Z,100.00
2022-10-10T02:26:07.663Z,100.00
2022-10-10T02:29:24.420Z,100.00
2022-10-10T02:32:28.583Z,100.00
2022-10-10T02:35:34.307Z,100.00
2022-10-10T02:38:35.664Z,100.00
2022-10-10T02:41:37.051Z,100.00
2022-10-10T02:44:38.418Z,100.00
2022-10-10T02:47:39.800Z,100.00
2022-10-10T02:50:41.203Z,100.00
2022-10-10T02:53:42.575Z,100.00
2022-10-10T02:56:43.925Z,100.00
2022-10-10T02:59:45.311Z,100.00
2022-10-10T03:02:46.808Z,100.00
2022-10-10T03:05:48.937Z,100.00
2022-10-10T03:08:50.392Z,100.00
2022-10-10T03:11:51.758Z,100.00
2022-10-10T03:14:53.140Z,100.00
2022-10-10T03:17:54.480Z,100.00
2022-10-10T03:20:58.790Z,100.00
2022-10-10T03:24:00.173Z,100.00
2022-10-10T03:27:01.542Z,100.00
2022-10-10T03:30:03.582Z,100.00
2022-10-10T03:33:05.205Z,100.00
2022-10-10T03:36:06.738Z,100.00
2022-10-10T03:39:09.375Z,100.00
2022-10-10T03:42:10.808Z,100.00
2022-10-10T03:45:12.143Z,100.00
2022-10-10T03:48:13.540Z,100.00
2022-10-10T03:51:14.939Z,100.00
2022-10-10T03:54:16.334Z,100.00
2022-10-10T03:57:17.765Z,100.00
2022-10-10T04:00:19.195Z,100.00
2022-10-10T04:03:20.576Z,100.00
2022-10-10T04:06:21.951Z,100.00
2022-10-10T04:09:23.325Z,100.00
2022-10-10T04:12:24.743Z,100.00
2022-10-10T04:15:26.139Z,100.00
2022-10-10T04:18:27.531Z,100.00
2022-10-10T04:21:28.895Z,100.00
2022-10-10T04:24:30.276Z,100.00
2022-10-10T04:27:31.646Z,100.00
2022-10-10T04:30:33.836Z,100.00
2022-10-10T04:33:35.250Z,100.00
2022-10-10T04:36:36.943Z,100.00
2022-10-10T04:39:38.498Z,100.00
2022-10-10T04:42:39.880Z,100.00
2022-10-10T04:45:41.298Z,100.00
2022-10-10T04:48:42.719Z,100.00
2022-10-10T04:51:44.162Z,100.00
2022-10-10T04:54:45.611Z,100.00
2022-10-10T04:57:47.193Z,100.00
2022-10-10T05:00:52.627Z,100.00
2022-10-10T05:03:54.045Z,100.00
2022-10-10T05:06:55.426Z,100.00
2022-10-10T05:09:56.781Z,100.00
2022-10-10T05:12:58.247Z,100.00
2022-10-10T05:16:00.822Z,100.00
2022-10-10T05:19:02.294Z,100.00
2022-10-10T05:22:03.666Z,100.00
2022-10-10T05:25:05.240Z,100.00
2022-10-10T05:28:06.710Z,100.00
2022-10-10T05:31:08.145Z,100.00
2022-10-10T05:34:12.254Z,100.00
2022-10-10T05:37:13.714Z,100.00
2022-10-10T05:40:15.161Z,100.00
2022-10-10T05:43:16.608Z,100.00
2022-10-10T05:46:20.251Z,100.00
2022-10-10T05:49:21.728Z,100.00
2022-10-10T05:52:23.161Z,100.00
2022-10-10T05:55:24.603Z,100.00
2022-10-10T05:58:26.073Z,100.00
2022-10-10T06:01:27.693Z,100.00
2022-10-10T06:04:29.034Z,100.00
2022-10-10T06:07:45.833Z,100.00
2022-10-10T06:10:51.781Z,100.00
2022-10-10T06:13:57.132Z,100.00
2022-10-10T06:16:58.508Z,100.00
2022-10-10T06:19:59.878Z,100.00
2022-10-10T06:23:02.018Z,100.00
2022-10-10T06:26:04.313Z,100.00
2022-10-10T06:29:05.695Z,100.00
2022-10-10T06:32:07.071Z,100.00
2022-10-10T06:35:08.495Z,100.00
2022-10-10T06:38:10.023Z,100.00
2022-10-10T06:41:11.367Z,100.00
2022-10-10T06:44:12.733Z,100.00
2022-10-10T06:47:14.073Z,100.00
2022-10-10T06:50:15.593Z,100.00
2022-10-10T06:53:17.136Z,100.00
2022-10-10T06:56:27.366Z,100.00
2022-10-10T06:59:29.108Z,100.00
2022-10-10T07:02:30.494Z,100.00
2022-10-10T07:05:31.934Z,100.00
2022-10-10T07:08:33.321Z,100.00
2022-10-10T07:11:34.659Z,100.00
2022-10-10T07:14:36.073Z,100.00
2022-10-10T07:17:37.788Z,100.00
2022-10-10T07:20:39.224Z,100.00
2022-10-10T07:23:41.122Z,100.00
2022-10-10T07:26:42.522Z,100.00
2022-10-10T07:29:43.995Z,100.00
2022-10-10T07:32:45.624Z,100.00
2022-10-10T07:35:52.210Z,100.00
2022-10-10T07:38:54.709Z,100.00
2022-10-10T07:41:56.083Z,100.00
2022-10-10T07:44:57.448Z,100.00
2022-10-10T07:47:58.826Z,100.00
2022-10-10T07:51:00.360Z,100.00
2022-10-10T07:54:01.843Z,100.00
2022-10-10T07:57:03.252Z,100.00
2022-10-10T08:00:05.404Z,100.00
2022-10-10T08:03:11.676Z,100.00
2022-10-10T08:06:14.011Z,100.00
2022-10-10T08:09:15.468Z,100.00
2022-10-10T08:12:16.849Z,100.00
2022-10-10T08:15:18.296Z,100.00
2022-10-10T08:18:19.702Z,100.00
2022-10-10T08:21:21.116Z,100.00
2022-10-10T08:24:22.560Z,100.00
2022-10-10T08:27:24.056Z,100.00
2022-10-10T08:30:25.537Z,100.00
2022-10-10T08:33:27.285Z,100.00
2022-10-10T08:36:28.724Z,100.00
2022-10-10T08:39:30.152Z,100.00
2022-10-10T08:42:33.212Z,100.00
2022-10-10T08:45:34.686Z,100.00
2022-10-10T08:48:36.088Z,100.00
2022-10-10T08:51:37.445Z,100.00
2022-10-10T08:54:38.848Z,100.00
2022-10-10T08:57:50.637Z,100.00
2022-10-10T09:00:59.005Z,100.00
2022-10-10T09:04:01.144Z,100.00
2022-10-10T09:07:09.074Z,100.00
2022-10-10T09:10:13.853Z,100.00
2022-10-10T09:13:21.441Z,100.00
2022-10-10T09:16:22.917Z,100.00
2022-10-10T09:19:39.480Z,100.00
2022-10-10T09:22:44.557Z,100.00
2022-10-10T09:25:52.125Z,100.00
2022-10-10T09:28:58.709Z,100.00
2022-10-10T09:32:20.320Z,91.73
2022-10-10T09:35:25.197Z,92.67
2022-10-10T09:38:37.381Z,94.06
2022-10-10T09:41:58.464Z,95.08
2022-10-10T09:45:00.046Z,100.00
2022-10-10T09:48:01.405Z,100.00
2022-10-10T09:51:03.493Z,100.00
2022-10-10T09:54:05.071Z,100.00
2022-10-10T09:57:06.518Z,99.47
2022-10-10T10:00:28.191Z,100.00
2022-10-10T10:03:29.581Z,100.00
2022-10-10T10:06:30.983Z,99.22
2022-10-10T10:09:32.331Z,99.05
2022-10-10T10:12:37.740Z,98.44
2022-10-10T10:15:39.131Z,98.57
2022-10-10T10:18:44.703Z,99.00
2022-10-10T10:21:51.504Z,93.17
2022-10-10T10:24:52.916Z,92.41
2022-10-10T10:28:11.457Z,86.90
2022-10-10T10:31:17.076Z,88.65
2022-10-10T10:34:24.731Z,82.85
2022-10-10T10:37:26.062Z,89.25
2022-10-10T10:40:29.861Z,90.40
2022-10-10T10:43:31.261Z,89.74
2022-10-10T10:46:39.279Z,85.43
2022-10-10T10:49:40.610Z,87.13
2022-10-10T10:52:44.956Z,85.86
2022-10-10T10:56:05.202Z,82.83
2022-10-10T10:59:38.547Z,80.51
2022-10-10T11:02:59.823Z,76.94
2022-10-10T11:06:22.687Z,74.60
2022-10-10T11:09:49.022Z,75.06
2022-10-10T11:12:57.668Z,72.18
2022-10-10T11:16:10.061Z,70.23
2022-10-10T11:19:20.100Z,71.91
2022-10-10T11:22:21.482Z,74.11
2022-10-10T11:25:24.363Z,77.01
2022-10-10T11:28:32.021Z,73.57
2022-10-10T11:31:34.074Z,67.96
2022-10-10T11:34:40.372Z,66.05
2022-10-10T11:37:43.244Z,73.58
2022-10-10T11:40:52.958Z,72.54
2022-10-10T11:44:05.730Z,74.70
2022-10-10T11:47:07.335Z,76.96
2022-10-10T11:50:13.812Z,79.10
2022-10-10T11:53:17.577Z,75.47
2022-10-10T11:56:21.911Z,72.93
2022-10-10T11:59:35.230Z,76.12
2022-10-10T12:02:36.957Z,77.86
2022-10-10T12:05:40.337Z,74.66
2022-10-10T12:08:46.942Z,79.85
2022-10-10T12:11:54.321Z,76.95
2022-10-10T12:14:55.861Z,79.14
2022-10-10T12:17:57.273Z,74.50
2022-10-10T12:21:17.813Z,74.38
2022-10-10T12:24:19.155Z,76.37
2022-10-10T12:27:27.936Z,69.60
2022-10-10T12:30:29.380Z,79.90
2022-10-10T12:33:33.755Z,81.41
2022-10-10T12:36:41.167Z,82.72
2022-10-10T12:40:02.843Z,86.72
2022-10-10T12:43:18.694Z,88.12
2022-10-10T12:46:27.282Z,90.15
2022-10-10T12:49:28.727Z,89.22
2022-10-10T12:52:32.739Z,90.49
2022-10-10T12:55:43.394Z,90.28
2022-10-10T12:58:44.796Z,87.42
2022-10-10T13:01:47.105Z,87.91
2022-10-10T13:04:48.562Z,84.92
2022-10-10T13:07:49.961Z,83.84
2022-10-10T13:11:01.433Z,83.05
2022-10-10T13:14:03.029Z,81.23
2022-10-10T13:17:17.865Z,81.78
2022-10-10T13:20:26.739Z,79.41
2022-10-10T13:23:28.395Z,80.93
2022-10-10T13:26:30.406Z,84.18
2022-10-10T13:29:35.045Z,85.15
2022-10-10T13:32:37.478Z,85.76
2022-10-10T13:35:38.804Z,80.76
2022-10-10T13:38:40.207Z,79.34
2022-10-10T13:41:43.701Z,75.07
2022-10-10T13:44:49.048Z,74.15
2022-10-10T13:47:50.776Z,72.58
2022-10-10T13:50:56.327Z,72.12
2022-10-10T13:53:57.723Z,71.17
2022-10-10T13:57:01.344Z,70.71
2022-10-10T14:00:04.877Z,71.12
2022-10-10T14:03:13.485Z,72.16
2022-10-10T14:06:18.877Z,70.85
2022-10-10T14:09:22.848Z,71.47
2022-10-10T14:12:31.650Z,69.94
2022-10-10T14:15:41.944Z,74.93
2022-10-10T14:18:43.360Z,70.67
2022-10-10T14:21:44.874Z,70.29
2022-10-10T14:24:46.406Z,70.66
2022-10-10T14:27:47.827Z,70.62
2022-10-10T14:30:49.154Z,66.72
2022-10-10T14:33:51.201Z,69.60
2022-10-10T14:36:52.566Z,70.19
2022-10-10T14:39:54.006Z,76.08
2022-10-10T14:42:58.329Z,79.04
2022-10-10T14:45:59.812Z,81.03
2022-10-10T14:49:01.194Z,83.01
2022-10-10T14:52:02.597Z,84.97
2022-10-10T14:55:04.146Z,86.74
2022-10-10T14:58:05.517Z,89.61
2022-10-10T15:01:06.944Z,91.00
2022-10-10T15:04:08.489Z,94.57
2022-10-10T15:07:14.688Z,95.56
2022-10-10T15:10:33.154Z,96.31
2022-10-10T15:13:35.755Z,96.75
2022-10-10T15:16:37.217Z,98.10
2022-10-10T15:19:38.615Z,96.86
2022-10-10T15:22:40.128Z,100.00
2022-10-10T15:25:42.028Z,100.00
2022-10-10T15:28:43.504Z,100.00
2022-10-10T15:31:44.915Z,100.00
2022-10-10T15:34:47.820Z,100.00
2022-10-10T15:37:49.308Z,100.00
2022-10-10T15:41:00.562Z,100.00
2022-10-10T15:44:02.304Z,100.00
2022-10-10T15:47:03.706Z,100.00
2022-10-10T15:50:05.313Z,100.00
2022-10-10T15:53:08.734Z,100.00
2022-10-10T15:56:11.187Z,100.00
2022-10-10T15:59:13.962Z,100.00
2022-10-10T16:02:15.703Z,100.00
2022-10-10T16:05:17.141Z,100.00
2022-10-10T16:08:18.986Z,100.00
2022-10-10T16:11:20.769Z,100.00
2022-10-10T16:14:22.132Z,100.00
2022-10-10T16:17:23.934Z,100.00
2022-10-10T16:20:25.428Z,100.00
2022-10-10T16:23:26.842Z,100.00
2022-10-10T16:26:29.327Z,100.00
2022-10-10T16:29:30.684Z,100.00
2022-10-10T16:32:32.201Z,100.00
2022-10-10T16:35:37.342Z,100.00
2022-10-10T16:38:38.829Z,100.00
2022-10-10T16:41:47.994Z,100.00
2022-10-10T16:44:49.704Z,100.00
2022-10-10T16:47:51.200Z,100.00
2022-10-10T16:50:52.598Z,100.00
2022-10-10T16:53:54.108Z,100.00
2022-10-10T16:56:55.449Z,100.00
2022-10-10T16:59:56.863Z,100.00
2022-10-10T17:02:58.250Z,100.00
2022-10-10T17:06:02.873Z,100.00
2022-10-10T17:09:07.418Z,100.00
2022-10-10T17:12:08.769Z,100.00
2022-10-10T17:15:10.194Z,100.00
2022-10-10T17:18:47.337Z,100.00
2022-10-10T17:21:48.750Z,100.00
2022-10-10T17:24:50.101Z,100.00
2022-10-10T17:27:51.508Z,100.00
2022-10-10T17:30:52.865Z,100.00
2022-10-10T17:33:54.962Z,100.00
2022-10-10T17:36:56.595Z,100.00
2022-10-10T17:39:57.944Z,100.00
2022-10-10T17:43:03.827Z,100.00
2022-10-10T17:46:29.496Z,100.00
2022-10-10T17:49:28.592Z,100.00
2022-10-10T17:52:29.986Z,100.00
2022-10-10T17:55:31.419Z,100.00
2022-10-10T17:58:32.789Z,100.00
2022-10-10T18:01:34.973Z,100.00
2022-10-10T18:04:36.908Z,100.00
2022-10-10T18:07:38.374Z,100.00
2022-10-10T18:10:40.146Z,100.00
2022-10-10T18:13:41.521Z,100.00
2022-10-10T18:16:44.859Z,100.00
2022-10-10T18:19:46.287Z,100.00
2022-10-10T18:22:47.654Z,100.00
2022-10-10T18:25:49.033Z,100.00
2022-10-10T18:28:52.481Z,100.00
2022-10-10T18:31:54.298Z,100.00
2022-10-10T18:34:55.813Z,100.00
2022-10-10T18:37:57.829Z,100.00
2022-10-10T18:41:06.215Z,100.00
2022-10-10T18:44:08.911Z,100.00
2022-10-10T18:47:10.340Z,100.00
2022-10-10T18:50:11.761Z,100.00
2022-10-10T18:53:13.346Z,100.00
2022-10-10T18:56:16.613Z,100.00
2022-10-10T18:59:18.967Z,100.00
2022-10-10T19:02:20.388Z,100.00
2022-10-10T19:05:21.711Z,100.00
2022-10-10T19:08:23.183Z,100.00
2022-10-10T19:11:28.549Z,100.00
2022-10-10T19:14:29.992Z,100.00
2022-10-10T19:17:33.354Z,100.00
2022-10-10T19:20:34.803Z,100.00
2022-10-10T19:23:36.272Z,100.00
2022-10-10T19:26:37.704Z,100.00
2022-10-10T19:29:39.168Z,100.00
2022-10-10T19:32:40.710Z,100.00
2022-10-10T19:35:42.631Z,100.00
2022-10-10T19:38:44.034Z,100.00
2022-10-10T19:41:45.461Z,100.00
2022-10-10T19:44:47.744Z,100.00
2022-10-10T19:47:49.153Z,100.00
2022-10-10T19:50:50.660Z,100.00
2022-10-10T19:53:52.127Z,100.00
2022-10-10T19:56:53.900Z,100.00
2022-10-10T19:59:55.268Z,100.00
2022-10-10T20:02:58.044Z,100.00
2022-10-10T20:06:00.386Z,100.00
2022-10-10T20:09:05.105Z,100.00
2022-10-10T20:12:09.814Z,100.00
2022-10-10T20:15:11.342Z,100.00
2022-10-10T20:18:12.709Z,100.00
2022-10-10T20:21:16.988Z,100.00
2022-10-10T20:24:18.594Z,100.00
2022-10-10T20:27:20.154Z,100.00
2022-10-10T20:30:21.661Z,100.00
2022-10-10T20:33:23.034Z,100.00
2022-10-10T20:36:26.509Z,100.00
2022-10-10T20:39:27.892Z,100.00
2022-10-10T20:42:29.265Z,100.00
2022-10-10T20:45:30.661Z,100.00
2022-10-10T20:48:32.133Z,100.00
2022-10-10T20:51:33.519Z,100.00
2022-10-10T20:54:36.430Z,100.00
2022-10-10T20:57:37.764Z,100.00
2022-10-10T21:00:42.398Z,100.00
2022-10-10T21:03:44.044Z,100.00
2022-10-10T21:06:45.478Z,100.00
2022-10-10T21:09:46.812Z,100.00
2022-10-10T21:12:48.189Z,100.00
2022-10-10T21:15:49.523Z,100.00
2022-10-10T21:18:57.495Z,100.00
2022-10-10T21:21:59.513Z,100.00
2022-10-10T21:25:00.925Z,100.00
2022-10-10T21:28:02.277Z,100.00
2022-10-10T21:31:03.714Z,100.00
2022-10-10T21:34:05.680Z,100.00
2022-10-10T21:37:07.037Z,100.00
2022-10-10T21:40:08.671Z,100.00
2022-10-10T21:43:10.384Z,100.00
2022-10-10T21:46:18.573Z,100.00
2022-10-10T21:49:19.939Z,100.00
2022-10-10T21:52:21.364Z,100.00
2022-10-10T21:55:22.773Z,100.00
2022-10-10T21:58:24.409Z,100.00
2022-10-10T22:01:26.090Z,100.00
2022-10-10T22:04:29.164Z,100.00
2022-10-10T22:07:30.677Z,100.00
2022-10-10T22:10:34.096Z,100.00
2022-10-10T22:13:35.858Z,100.00
2022-10-10T22:16:37.575Z,100.00
2022-10-10T22:19:38.982Z,100.00
2022-10-10T22:22:41.259Z,100.00
2022-10-10T22:25:49.734Z,100.00
2022-10-10T22:28:51.190Z,100.00
2022-10-10T22:31:52.659Z,100.00
2022-10-10T22:34:54.106Z,100.00
2022-10-10T22:37:55.446Z,100.00
2022-10-10T22:40:56.791Z,100.00
2022-10-10T22:43:58.187Z,100.00
2022-10-10T22:46:59.550Z,100.00
2022-10-10T22:50:00.980Z,100.00
2022-10-10T22:53:02.381Z,100.00
2022-10-10T22:56:04.151Z,100.00
2022-10-10T22:59:05.744Z,100.00
2022-10-10T23:02:07.080Z,100.00
2022-10-10T23:05:08.543Z,100.00
2022-10-10T23:08:09.972Z,100.00
2022-10-10T23:11:11.457Z,100.00
2022-10-10T23:14:12.871Z,100.00
2022-10-10T23:17:14.254Z,100.00
2022-10-10T23:20:15.673Z,100.00
2022-10-10T23:23:17.305Z,100.00
2022-10-10T23:26:18.712Z,100.00
2022-10-10T23:29:20.105Z,100.00
2022-10-10T23:32:23.047Z,100.00
2022-10-10T23:35:24.388Z,100.00
2022-10-10T23:38:25.794Z,100.00
2022-10-10T23:41:27.179Z,100.00
2022-10-10T23:44:28.624Z,100.00
2022-10-10T23:47:30.036Z,100.00
2022-10-10T23:50:31.378Z,100.00
2022-10-10T23:53:34.129Z,100.00
2022-10-10T23:56:35.520Z,100.00
2022-10-10T23:59:36.922Z,100.00
